Time;durP1;ratioP1;P1;durP2;ratioP2;P2;SDS_P1;SDS_P2;PMS_P1;PMS_P2;Temp;Humidity;BMP_temperature;BMP_pressure;BME280_temperature;BME280_humidity;BME280_pressure;Samples;Min_cycle;Max_cycle;Signal;HPM_P1;HPM_P2
2023/06/10 00:00:07;;;;;;;10.25;7.55;;;;;;;21.17;100.00;101207.53;5278583;28;20028;-67
2023/06/10 00:02:39;;;;;;;8.93;7.28;;;;;;;21.20;100.00;101214.44;5276545;28;20098;-67
2023/06/10 00:05:10;;;;;;;9.85;6.95;;;;;;;21.13;100.00;101214.31;5274210;28;20017;-66
2023/06/10 00:07:42;;;;;;;10.27;7.57;;;;;;;21.06;100.00;101208.75;5276200;28;20084;-67
2023/06/10 00:10:13;;;;;;;8.55;7.18;;;;;;;21.06;100.00;101213.34;5268754;28;20020;-66
2023/06/10 00:12:45;;;;;;;7.47;6.28;;;;;;;21.04;100.00;101218.09;5269748;28;20097;-66
2023/06/10 00:15:16;;;;;;;8.10;6.88;;;;;;;21.01;100.00;101213.84;5277078;28;20086;-66
2023/06/10 00:17:48;;;;;;;8.25;7.38;;;;;;;20.99;100.00;101206.94;5275464;28;20376;-66
2023/06/10 00:20:21;;;;;;;8.88;7.03;;;;;;;20.93;100.00;101212.03;5276481;28;20043;-66
2023/06/10 00:22:53;;;;;;;9.75;7.68;;;;;;;20.89;100.00;101224.25;5276932;28;20402;-66
2023/06/10 00:25:25;;;;;;;9.60;7.05;;;;;;;20.84;100.00;101218.50;5276308;28;20029;-66
2023/06/10 00:27:57;;;;;;;8.43;6.95;;;;;;;20.81;100.00;101220.75;5274624;28;20039;-66
2023/06/10 00:30:28;;;;;;;8.45;7.45;;;;;;;20.74;100.00;101216.00;5274046;28;20057;-66
2023/06/10 00:33:00;;;;;;;8.27;7.40;;;;;;;20.68;100.00;101218.59;5268459;28;20031;-66
2023/06/10 00:35:31;;;;;;;8.70;7.80;;;;;;;20.60;100.00;101218.63;5271962;28;20028;-66
2023/06/10 00:38:02;;;;;;;9.98;7.50;;;;;;;20.57;100.00;101219.75;5273151;28;20024;-66
2023/06/10 00:40:40;;;;;;;8.53;7.57;;;;;;;20.61;100.00;101223.84;5271517;28;20379;-67
2023/06/10 00:43:12;;;;;;;8.77;7.88;;;;;;;20.62;100.00;101219.28;5270185;28;20314;-66
2023/06/10 00:45:43;;;;;;;11.32;7.70;;;;;;;20.59;100.00;101222.31;5282841;28;20428;-66
2023/06/10 00:48:15;;;;;;;8.70;7.03;;;;;;;20.53;100.00;101221.13;5271453;28;20460;-66
2023/06/10 00:50:47;;;;;;;8.73;7.78;;;;;;;20.44;100.00;101220.31;5272166;28;20028;-66
2023/06/10 00:53:19;;;;;;;10.07;8.00;;;;;;;20.37;100.00;101222.88;5270794;28;20115;-66
2023/06/10 00:55:50;;;;;;;8.95;7.57;;;;;;;20.32;100.00;101227.94;5275628;28;20051;-66
2023/06/10 00:58:23;;;;;;;13.40;8.32;;;;;;;20.35;100.00;101221.34;5268089;28;20037;-66
2023/06/10 01:00:55;;;;;;;10.30;7.95;;;;;;;20.30;100.00;101221.00;5277726;28;20025;-66
2023/06/10 01:03:26;;;;;;;9.00;7.43;;;;;;;20.25;100.00;101221.53;5273388;28;20021;-66
2023/06/10 01:06:23;;;;;;;10.48;7.82;;;;;;;20.26;100.00;101214.25;5271550;28;20032;-66
2023/06/10 01:09:21;;;;;;;9.82;8.10;;;;;;;20.25;100.00;101220.69;5271282;28;20028;-68
2023/06/10 01:12:20;;;;;;;9.05;7.80;;;;;;;20.15;100.00;101221.72;5270941;28;20061;-66
2023/06/10 01:14:52;;;;;;;9.48;8.50;;;;;;;20.02;100.00;101218.69;5268568;28;20024;-67
2023/06/10 01:17:24;;;;;;;9.82;8.38;;;;;;;20.00;100.00;101226.16;5265199;28;20062;-66
2023/06/10 01:19:56;;;;;;;10.35;8.10;;;;;;;19.91;100.00;101219.03;5276923;28;20029;-66
2023/06/10 01:22:36;;;;;;;10.35;8.65;;;;;;;19.85;100.00;101220.56;5272595;28;20035;-66
2023/06/10 01:25:08;;;;;;;11.52;8.70;;;;;;;19.88;100.00;101222.06;5275924;28;20020;-66
2023/06/10 01:27:41;;;;;;;10.75;8.27;;;;;;;19.82;100.00;101229.00;5270884;28;20043;-67
2023/06/10 01:30:17;;;;;;;10.15;8.65;;;;;;;19.84;100.00;101220.72;5274950;28;20066;-66
2023/06/10 01:32:51;;;;;;;9.35;8.15;;;;;;;19.82;100.00;101230.88;5275546;28;20055;-66
2023/06/10 01:35:26;;;;;;;9.00;8.20;;;;;;;19.67;100.00;101226.06;5274564;28;20517;-66
2023/06/10 01:37:59;;;;;;;10.23;8.45;;;;;;;19.64;100.00;101231.00;5270436;28;20020;-66
2023/06/10 01:40:32;;;;;;;10.88;9.02;;;;;;;19.59;100.00;101224.22;5268001;28;20119;-66
2023/06/10 01:43:04;;;;;;;9.40;8.50;;;;;;;19.50;100.00;101224.38;5264556;28;20025;-66
2023/06/10 01:45:35;;;;;;;10.32;9.25;;;;;;;19.54;100.00;101225.72;5267415;28;20153;-66
2023/06/10 01:48:07;;;;;;;10.50;8.85;;;;;;;19.44;100.00;101231.28;5272622;28;20579;-66
2023/06/10 01:50:38;;;;;;;11.20;9.45;;;;;;;19.45;100.00;101229.44;5269323;28;20038;-66
2023/06/10 01:53:10;;;;;;;10.90;9.80;;;;;;;19.37;100.00;101223.00;5275532;28;20036;-66
2023/06/10 01:55:41;;;;;;;13.00;9.75;;;;;;;19.37;100.00;101230.28;5276842;28;20028;-66
2023/06/10 01:58:12;;;;;;;11.50;10.30;;;;;;;19.31;100.00;101225.50;5272688;28;20491;-66
2023/06/10 02:00:44;;;;;;;11.30;10.10;;;;;;;19.31;100.00;101222.81;5275252;28;20031;-66
2023/06/10 02:03:15;;;;;;;11.05;9.95;;;;;;;19.30;100.00;101232.78;5271304;28;20036;-66
2023/06/10 02:05:47;;;;;;;11.57;10.38;;;;;;;19.18;100.00;101224.13;5271423;28;20379;-67
2023/06/10 02:08:18;;;;;;;12.60;10.35;;;;;;;19.09;100.00;101235.09;5272008;28;20467;-66
2023/06/10 02:10:49;;;;;;;13.80;10.93;;;;;;;19.12;100.00;101240.16;5275236;28;20025;-66
2023/06/10 02:13:21;;;;;;;11.82;10.63;;;;;;;19.06;100.00;101236.28;5269979;28;20031;-66
2023/06/10 02:15:53;;;;;;;13.30;10.68;;;;;;;19.06;100.00;101228.16;5276327;28;20402;-66
2023/06/10 02:18:26;;;;;;;11.88;10.68;;;;;;;18.92;100.00;101232.31;5266455;28;20462;-66
2023/06/10 02:20:58;;;;;;;11.55;10.35;;;;;;;18.93;100.00;101234.03;5270651;28;20033;-66
2023/06/10 02:23:29;;;;;;;12.77;11.48;;;;;;;18.85;100.00;101239.41;5274331;28;20074;-66
2023/06/10 02:26:02;;;;;;;12.90;11.60;;;;;;;18.79;100.00;101245.41;5265578;28;20036;-66
2023/06/10 02:28:33;;;;;;;12.70;10.75;;;;;;;18.83;100.00;101248.66;5275076;28;20079;-66
2023/06/10 02:31:05;;;;;;;12.38;10.55;;;;;;;18.75;100.00;101244.88;5279570;28;20036;-66
2023/06/10 02:33:41;;;;;;;12.00;10.70;;;;;;;18.71;100.00;101248.91;5274092;28;20082;-66
2023/06/10 02:36:13;;;;;;;14.93;11.40;;;;;;;18.69;100.00;101244.69;5260884;28;20033;-66
2023/06/10 02:38:44;;;;;;;12.95;11.60;;;;;;;18.65;100.00;101243.31;5273354;28;20105;-66
2023/06/10 02:41:16;;;;;;;16.10;11.30;;;;;;;18.57;100.00;101246.81;5271829;28;20108;-66
2023/06/10 02:43:47;;;;;;;16.08;12.05;;;;;;;18.53;100.00;101245.44;5271660;28;20056;-66
2023/06/10 02:46:19;;;;;;;12.30;10.68;;;;;;;18.52;100.00;101247.28;5275050;28;20442;-66
2023/06/10 02:48:51;;;;;;;13.27;11.82;;;;;;;18.48;100.00;101245.91;5271555;28;20561;-66
2023/06/10 02:51:23;;;;;;;15.38;12.25;;;;;;;18.44;100.00;101249.09;5275213;28;20032;-66
2023/06/10 02:53:54;;;;;;;13.23;11.93;;;;;;;18.36;100.00;101248.03;5271031;28;20032;-67
2023/06/10 02:56:26;;;;;;;16.42;12.77;;;;;;;18.35;100.00;101240.09;5269067;28;20028;-67
2023/06/10 02:58:57;;;;;;;14.75;13.20;;;;;;;18.27;100.00;101246.28;5277157;28;20052;-66
2023/06/10 03:01:31;;;;;;;16.25;12.88;;;;;;;18.23;100.00;101251.13;5272298;28;20025;-67
2023/06/10 03:04:05;;;;;;;14.93;12.63;;;;;;;18.24;100.00;101252.00;5272201;28;20031;-66
2023/06/10 03:06:38;;;;;;;13.02;11.80;;;;;;;18.20;100.00;101243.38;5274491;28;20451;-67
2023/06/10 03:09:09;;;;;;;14.68;13.18;;;;;;;18.17;100.00;101246.38;5265166;28;20029;-67
2023/06/10 03:11:41;;;;;;;14.55;12.88;;;;;;;18.14;100.00;101244.00;5274519;28;20364;-66
2023/06/10 03:14:12;;;;;;;16.05;12.70;;;;;;;18.12;100.00;101247.84;5268005;28;20036;-67
2023/06/10 03:16:45;;;;;;;15.68;14.00;;;;;;;18.16;100.00;101247.41;5270215;28;20108;-66
2023/06/10 03:19:16;;;;;;;17.02;13.40;;;;;;;18.05;100.00;101253.03;5271119;28;20036;-67
2023/06/10 03:21:50;;;;;;;15.57;13.32;;;;;;;18.05;100.00;101249.50;5263379;28;20033;-67
2023/06/10 03:24:21;;;;;;;15.35;13.82;;;;;;;18.12;100.00;101250.56;5274053;28;20024;-66
2023/06/10 03:26:53;;;;;;;16.33;13.80;;;;;;;17.96;100.00;101254.81;5272128;28;20035;-66
2023/06/10 03:29:24;;;;;;;15.98;12.68;;;;;;;17.96;100.00;101253.97;5268619;28;20032;-66
2023/06/10 03:31:56;;;;;;;15.02;13.48;;;;;;;18.07;100.00;101261.00;5277296;28;20098;-66
2023/06/10 03:34:28;;;;;;;14.80;13.32;;;;;;;17.95;100.00;101261.25;5273321;28;20603;-65
2023/06/10 03:36:59;;;;;;;16.30;13.25;;;;;;;17.97;100.00;101261.09;5268782;28;20172;-67
2023/06/10 03:39:31;;;;;;;17.20;13.35;;;;;;;17.87;100.00;101266.53;5274300;28;20033;-67
2023/06/10 03:42:02;;;;;;;17.33;13.82;;;;;;;17.97;100.00;101263.78;5265676;28;20032;-67
2023/06/10 03:44:34;;;;;;;16.23;13.80;;;;;;;17.85;100.00;101265.00;5283627;28;20481;-67
2023/06/10 03:47:05;;;;;;;20.70;15.10;;;;;;;17.86;100.00;101277.53;5277494;28;20032;-66
2023/06/10 03:49:37;;;;;;;14.80;13.38;;;;;;;17.81;100.00;101269.84;5279287;28;20402;-67
2023/06/10 03:52:08;;;;;;;15.05;13.55;;;;;;;17.76;100.00;101267.59;5276155;28;20069;-67
2023/06/10 03:54:40;;;;;;;17.63;13.90;;;;;;;17.85;100.00;101270.41;5276937;28;20028;-67
2023/06/10 03:57:11;;;;;;;16.85;14.65;;;;;;;17.82;100.00;101268.84;5271769;28;20033;-67
2023/06/10 03:59:42;;;;;;;15.82;14.23;;;;;;;17.78;100.00;101276.41;5275685;28;20017;-66
2023/06/10 04:02:14;;;;;;;15.82;13.85;;;;;;;17.74;100.00;101272.31;5274638;28;20360;-66
2023/06/10 04:04:46;;;;;;;15.98;14.27;;;;;;;17.70;100.00;101273.63;5276389;28;20115;-66
2023/06/10 04:07:20;;;;;;;16.95;14.90;;;;;;;17.73;100.00;101269.75;5274739;28;20119;-67
2023/06/10 04:09:51;;;;;;;;;;;;;;;17.86;100.00;101272.13;5276173;28;20122;-67
2023/06/10 04:12:22;;;;;;;16.58;14.48;;;;;;;17.74;100.00;101271.47;5270518;28;20345;-67
2023/06/10 04:14:54;;;;;;;18.25;15.75;;;;;;;17.72;100.00;101271.63;5275842;28;20066;-67
2023/06/10 04:17:25;;;;;;;17.38;15.55;;;;;;;17.68;100.00;101272.06;5269959;28;20768;-67
2023/06/10 04:19:57;;;;;;;17.45;15.32;;;;;;;17.73;100.00;101278.69;5270104;28;20020;-67
2023/06/10 04:22:29;;;;;;;17.85;16.05;;;;;;;17.64;100.00;101272.38;5273310;28;20120;-67
2023/06/10 04:25:00;;;;;;;17.25;15.45;;;;;;;17.66;100.00;101280.34;5269991;28;20032;-67
2023/06/10 04:27:32;;;;;;;16.55;14.85;;;;;;;17.67;100.00;101279.31;5275726;28;20591;-67
2023/06/10 04:30:04;;;;;;;16.42;14.82;;;;;;;17.73;100.00;101284.09;5270417;28;20030;-67
2023/06/10 04:32:35;;;;;;;16.77;15.05;;;;;;;17.72;100.00;101292.34;5272980;28;20036;-66
2023/06/10 04:35:07;;;;;;;16.02;14.40;;;;;;;17.71;100.00;101285.25;5271917;28;20021;-66
2023/06/10 04:37:39;;;;;;;17.10;15.30;;;;;;;17.78;100.00;101291.75;5276323;28;20043;-67
2023/06/10 04:40:10;;;;;;;17.08;15.05;;;;;;;17.78;100.00;101292.59;5275714;28;20032;-67
2023/06/10 04:42:42;;;;;;;17.65;15.68;;;;;;;17.77;100.00;101293.59;5277445;28;20063;-66
2023/06/10 04:45:13;;;;;;;16.02;14.30;;;;;;;17.82;100.00;101295.84;5271003;28;20025;-67
2023/06/10 04:47:45;;;;;;;19.05;15.70;;;;;;;17.80;100.00;101295.16;5276112;28;20376;-66
2023/06/10 04:50:16;;;;;;;16.70;14.80;;;;;;;17.83;100.00;101294.81;5277938;28;20115;-67
2023/06/10 04:52:48;;;;;;;16.10;13.93;;;;;;;17.82;100.00;101293.97;5274923;28;20029;-66
2023/06/10 04:55:19;;;;;;;16.52;14.93;;;;;;;17.91;100.00;101297.66;5278815;28;20033;-67
2023/06/10 04:57:51;;;;;;;17.52;14.52;;;;;;;17.91;100.00;101302.19;5275170;28;20401;-66
2023/06/10 05:00:22;;;;;;;16.90;14.57;;;;;;;17.88;100.00;101302.50;5277558;28;20032;-66
2023/06/10 05:02:55;;;;;;;17.02;14.80;;;;;;;17.93;100.00;101302.88;5282289;28;20449;-67
2023/06/10 05:05:27;;;;;;;15.45;13.32;;;;;;;17.94;100.00;101299.19;5275869;28;20036;-66
2023/06/10 05:07:58;;;;;;;15.85;14.07;;;;;;;18.05;100.00;101303.50;5275194;28;20048;-67
2023/06/10 05:10:31;;;;;;;16.05;14.32;;;;;;;17.99;100.00;101300.41;5270952;28;20545;-66
2023/06/10 05:13:03;;;;;;;15.82;13.20;;;;;;;18.01;100.00;101300.28;5275943;28;20027;-66
2023/06/10 05:15:34;;;;;;;15.52;13.30;;;;;;;18.06;100.00;101305.19;5275282;28;20024;-67
2023/06/10 05:18:05;;;;;;;15.00;13.50;;;;;;;18.20;100.00;101299.25;5275569;28;20025;-67
2023/06/10 05:20:37;;;;;;;16.13;13.77;;;;;;;18.19;100.00;101297.53;5282546;28;20043;-66
2023/06/10 05:23:08;;;;;;;15.60;13.95;;;;;;;18.21;100.00;101299.06;5270750;28;20966;-66
2023/06/10 05:25:40;;;;;;;14.52;12.65;;;;;;;18.21;100.00;101301.78;5270665;28;20029;-66
2023/06/10 05:28:11;;;;;;;14.75;13.07;;;;;;;18.26;100.00;101300.47;5272833;28;20035;-66
2023/06/10 05:30:43;;;;;;;13.30;12.00;;;;;;;18.29;100.00;101306.41;5277974;28;20055;-67
2023/06/10 05:33:14;;;;;;;15.95;13.23;;;;;;;18.33;100.00;101301.53;5272614;28;20024;-66
2023/06/10 05:35:46;;;;;;;16.48;12.68;;;;;;;18.35;100.00;101303.09;5275773;28;20437;-67
2023/06/10 05:38:17;;;;;;;16.25;14.23;;;;;;;18.38;100.00;101304.63;5273709;28;20032;-66
2023/06/10 05:40:49;;;;;;;13.90;12.43;;;;;;;18.44;100.00;101297.75;5274377;28;20111;-67
2023/06/10 05:43:20;;;;;;;14.38;12.40;;;;;;;18.49;100.00;101296.25;5278468;28;20056;-67
2023/06/10 05:45:52;;;;;;;16.63;13.13;;;;;;;18.52;100.00;101298.63;5274896;28;20029;-67
2023/06/10 05:48:23;;;;;;;14.27;12.27;;;;;;;18.61;100.00;101302.25;5276510;28;20154;-66
2023/06/10 05:50:55;;;;;;;17.90;12.52;;;;;;;18.63;100.00;101296.69;5279156;28;20050;-66
2023/06/10 05:53:26;;;;;;;15.35;12.90;;;;;;;18.72;100.00;101301.97;5276667;28;20039;-67
2023/06/10 05:55:58;;;;;;;16.23;13.07;;;;;;;18.77;100.00;101302.38;5270873;28;20399;-67
2023/06/10 05:58:29;;;;;;;16.42;12.43;;;;;;;18.81;100.00;101302.91;5276601;28;20021;-67
2023/06/10 06:01:01;;;;;;;15.23;12.30;;;;;;;18.92;100.00;101308.03;5273599;28;20418;-66
2023/06/10 06:03:32;;;;;;;13.80;12.18;;;;;;;18.92;100.00;101301.78;5275017;28;20021;-66
2023/06/10 06:06:04;;;;;;;16.00;12.07;;;;;;;18.97;100.00;101308.41;5274534;28;20036;-66
2023/06/10 06:08:35;;;;;;;15.55;12.10;;;;;;;19.02;100.00;101304.38;5271754;28;20032;-66
2023/06/10 06:11:07;;;;;;;13.85;11.50;;;;;;;19.13;100.00;101310.31;5268466;28;20415;-66
2023/06/10 06:13:38;;;;;;;15.82;11.30;;;;;;;19.16;100.00;101309.19;5271603;28;20021;-67
2023/06/10 06:16:09;;;;;;;12.70;11.05;;;;;;;19.21;100.00;101312.22;5272003;28;20024;-68
2023/06/10 06:18:41;;;;;;;15.48;11.63;;;;;;;19.31;100.00;101312.09;5272536;28;20389;-68
2023/06/10 06:21:12;;;;;;;16.45;11.25;;;;;;;19.39;100.00;101309.44;5270658;28;20704;-68
2023/06/10 06:23:44;;;;;;;14.00;10.95;;;;;;;19.48;100.00;101313.84;5277013;28;20146;-68
2023/06/10 06:26:15;;;;;;;14.75;11.02;;;;;;;19.53;100.00;101306.09;5274114;28;20025;-68
2023/06/10 06:28:46;;;;;;;14.73;10.90;;;;;;;19.70;100.00;101312.38;5273018;28;20379;-68
2023/06/10 06:31:18;;;;;;;14.40;11.25;;;;;;;19.83;100.00;101311.94;5268794;28;20033;-68
2023/06/10 06:33:49;;;;;;;12.25;10.23;;;;;;;19.82;100.00;101314.81;5272928;28;20584;-68
2023/06/10 06:36:21;;;;;;;13.98;11.50;;;;;;;19.92;100.00;101315.50;5274714;28;20031;-68
2023/06/10 06:38:52;;;;;;;12.85;9.98;;;;;;;20.14;100.00;101316.72;5274246;28;20037;-68
2023/06/10 06:41:26;;;;;;;12.15;10.05;;;;;;;20.14;100.00;101319.44;5264708;28;20016;-68
2023/06/10 06:43:57;;;;;;;12.18;9.98;;;;;;;20.30;100.00;101315.88;5271471;28;20038;-68
2023/06/10 06:46:29;;;;;;;14.10;10.35;;;;;;;20.31;100.00;101318.41;5268191;28;20641;-68
2023/06/10 06:49:00;;;;;;;12.45;10.43;;;;;;;20.45;100.00;101318.75;5270298;28;20022;-68
2023/06/10 06:51:31;;;;;;;12.02;9.68;;;;;;;20.55;100.00;101316.69;5269340;28;20027;-68
2023/06/10 06:54:05;;;;;;;12.88;10.00;;;;;;;20.71;100.00;101324.84;5270216;28;20823;-68
2023/06/10 06:56:38;;;;;;;12.27;10.07;;;;;;;20.71;100.00;101327.56;5272644;28;20038;-68
2023/06/10 06:59:09;;;;;;;14.98;9.77;;;;;;;20.85;100.00;101326.00;5275968;28;20028;-68
2023/06/10 07:01:41;;;;;;;10.57;9.13;;;;;;;20.99;100.00;101334.44;5270913;28;20436;-67
2023/06/10 07:04:15;;;;;;;13.25;9.85;;;;;;;21.01;100.00;101329.69;5271571;28;20406;-67
2023/06/10 07:06:46;;;;;;;11.10;9.38;;;;;;;21.08;100.00;101330.69;5266314;28;20101;-67
2023/06/10 07:09:17;;;;;;;10.07;8.60;;;;;;;21.17;100.00;101331.47;5269617;28;20405;-65
2023/06/10 07:11:49;;;;;;;12.48;8.85;;;;;;;21.34;100.00;101333.09;5257239;28;20033;-66
2023/06/10 07:14:20;;;;;;;11.82;8.98;;;;;;;21.34;100.00;101338.53;5273229;28;20066;-65
2023/06/10 07:16:52;;;;;;;11.77;9.05;;;;;;;21.42;100.00;101335.81;5256441;28;20115;-65
2023/06/10 07:19:23;;;;;;;10.40;8.60;;;;;;;21.46;100.00;101336.34;5269619;28;20016;-65
2023/06/10 07:21:55;;;;;;;9.52;8.18;;;;;;;21.61;100.00;101333.69;5261480;28;20025;-65
2023/06/10 07:24:26;;;;;;;12.13;8.88;;;;;;;21.66;100.00;101337.56;5273028;28;20029;-66
2023/06/10 07:26:57;;;;;;;17.45;8.57;;;;;;;21.90;100.00;101339.28;5272965;28;20017;-66
2023/06/10 07:29:29;;;;;;;10.35;8.77;;;;;;;21.95;100.00;101338.75;5274344;28;20382;-65
2023/06/10 07:32:00;;;;;;;11.63;8.23;;;;;;;22.09;100.00;101331.69;5270113;28;20025;-66
2023/06/10 07:34:32;;;;;;;13.77;9.32;;;;;;;22.18;100.00;101335.19;5277331;28;20097;-66
2023/06/10 07:37:03;;;;;;;9.30;8.02;;;;;;;22.31;100.00;101335.47;5267200;28;20468;-66
2023/06/10 07:39:35;;;;;;;11.90;8.30;;;;;;;22.33;100.00;101338.84;5272393;28;20079;-65
2023/06/10 07:42:06;;;;;;;10.10;7.75;;;;;;;22.50;100.00;101344.97;5261706;28;20380;-66
2023/06/10 07:44:38;;;;;;;13.13;7.82;;;;;;;22.49;100.00;101335.13;5272090;28;20043;-65
2023/06/10 07:47:09;;;;;;;10.57;7.88;;;;;;;22.67;100.00;101340.25;5270467;28;20031;-66
2023/06/10 07:49:41;;;;;;;10.55;8.18;;;;;;;22.75;100.00;101342.88;5267359;28;20508;-66
2023/06/10 07:52:13;;;;;;;11.95;7.75;;;;;;;22.99;100.00;101343.63;5272573;28;20029;-66
2023/06/10 07:54:44;;;;;;;11.02;7.72;;;;;;;23.09;100.00;101344.25;5267830;28;20029;-66
2023/06/10 07:57:15;;;;;;;9.52;7.43;;;;;;;22.99;100.00;101347.22;5257843;28;20033;-66
2023/06/10 07:59:47;;;;;;;8.68;7.15;;;;;;;23.16;100.00;101342.44;5270394;28;20017;-66
2023/06/10 08:02:18;;;;;;;11.90;7.10;;;;;;;23.14;100.00;101347.22;5264664;28;20057;-66
2023/06/10 08:04:50;;;;;;;13.70;7.18;;;;;;;23.27;100.00;101341.97;5262072;28;20763;-66
2023/06/10 08:07:21;;;;;;;10.07;7.88;;;;;;;23.40;100.00;101335.03;5268908;28;20060;-67
2023/06/10 08:09:53;;;;;;;9.15;6.38;;;;;;;23.45;100.00;101343.44;5274781;28;20017;-66
2023/06/10 08:12:24;;;;;;;10.30;7.15;;;;;;;23.59;100.00;101339.88;5275440;28;20089;-66
2023/06/10 08:14:56;;;;;;;9.43;6.97;;;;;;;23.79;100.00;101342.84;5269570;28;20407;-65
2023/06/10 08:17:27;;;;;;;7.88;6.57;;;;;;;23.77;100.00;101333.13;5271070;28;20459;-66
2023/06/10 08:19:59;;;;;;;10.18;6.60;;;;;;;23.93;100.00;101345.69;5277721;28;20027;-66
2023/06/10 08:22:30;;;;;;;8.25;6.45;;;;;;;23.92;100.00;101338.59;5264043;28;20450;-66
2023/06/10 08:25:02;;;;;;;8.60;6.32;;;;;;;23.88;100.00;101338.97;5273168;28;20016;-66
2023/06/10 08:27:33;;;;;;;8.43;6.43;;;;;;;23.95;100.00;101341.78;5280481;28;20074;-66
2023/06/10 08:30:05;;;;;;;8.40;6.38;;;;;;;24.14;100.00;101344.88;5269654;28;20025;-66
2023/06/10 08:32:37;;;;;;;8.50;6.63;;;;;;;24.32;100.00;101348.00;5269026;28;20024;-66
2023/06/10 08:35:08;;;;;;;9.75;6.90;;;;;;;24.24;100.00;101342.69;5268186;28;20028;-66
2023/06/10 08:37:40;;;;;;;9.05;6.57;;;;;;;24.35;100.00;101338.56;5270503;28;20047;-66
2023/06/10 08:40:12;;;;;;;8.07;6.00;;;;;;;24.67;100.00;101337.19;5279379;28;20031;-66
2023/06/10 08:43:03;;;;;;;10.43;6.20;;;;;;;24.57;100.00;101348.44;5276145;28;20036;-66
2023/06/10 08:45:37;;;;;;;10.52;6.40;;;;;;;24.68;100.00;101346.19;5275095;28;20535;-66
2023/06/10 08:48:10;;;;;;;12.23;7.63;;;;;;;24.91;100.00;101351.41;5273359;28;20886;-66
2023/06/10 08:50:42;;;;;;;9.02;6.53;;;;;;;24.91;100.00;101343.22;5272305;28;20039;-66
2023/06/10 08:53:18;;;;;;;8.85;6.25;;;;;;;24.94;100.00;101351.00;5270327;28;20024;-66
2023/06/10 08:55:53;;;;;;;8.88;6.40;;;;;;;25.01;100.00;101349.16;5272595;28;20028;-66
2023/06/10 08:58:26;;;;;;;7.35;6.25;;;;;;;25.21;100.00;101347.38;5276922;28;20024;-66
2023/06/10 09:00:59;;;;;;;9.48;6.40;;;;;;;25.16;100.00;101343.56;5277673;28;20028;-66
2023/06/10 09:03:31;;;;;;;9.60;5.82;;;;;;;25.29;100.00;101345.56;5267471;28;20028;-66
2023/06/10 09:06:07;;;;;;;8.38;6.30;;;;;;;25.48;100.00;101344.81;5276364;28;20024;-66
2023/06/10 09:08:39;;;;;;;9.82;6.13;;;;;;;25.66;100.00;101341.53;5272643;28;20032;-66
2023/06/10 09:11:10;;;;;;;7.75;6.07;;;;;;;25.70;100.00;101344.69;5278984;28;20081;-65
2023/06/10 09:13:42;;;;;;;7.50;5.70;;;;;;;25.65;100.00;101339.81;5274511;28;20025;-66
2023/06/10 09:16:13;;;;;;;10.52;6.22;;;;;;;25.74;100.00;101343.22;5277651;28;20063;-66
2023/06/10 09:18:45;;;;;;;9.27;6.13;;;;;;;25.84;100.00;101335.47;5262087;28;20025;-66
2023/06/10 09:21:16;;;;;;;9.10;6.05;;;;;;;25.95;100.00;101339.53;5274114;28;20047;-65
2023/06/10 09:23:48;;;;;;;10.15;6.20;;;;;;;25.85;100.00;101339.91;5269410;28;20532;-66
2023/06/10 09:26:20;;;;;;;9.18;5.90;;;;;;;26.01;96.00;101338.69;5275923;28;20024;-66
2023/06/10 09:29:02;;;;;;;10.73;5.93;;;;;;;26.08;99.63;101344.16;5274050;28;20055;-66
2023/06/10 09:31:38;;;;;;;9.95;6.22;;;;;;;26.21;100.00;101334.09;5271391;28;20412;-66
2023/06/10 09:34:12;;;;;;;9.80;6.10;;;;;;;26.24;100.00;101335.56;5265793;28;20059;-65
2023/06/10 09:36:44;;;;;;;8.45;5.90;;;;;;;26.22;100.00;101337.66;5272232;28;20024;-66
2023/06/10 09:39:17;;;;;;;9.93;6.00;;;;;;;26.29;96.31;101335.78;5263354;28;20086;-65
2023/06/10 09:41:48;;;;;;;7.60;5.68;;;;;;;26.30;100.00;101331.16;5277520;28;20025;-66
2023/06/10 09:44:21;;;;;;;8.40;6.28;;;;;;;26.39;98.58;101341.66;5271454;28;20035;-66
2023/06/10 09:46:54;;;;;;;9.70;5.90;;;;;;;26.64;100.00;101332.84;5270802;28;20028;-65
2023/06/10 09:49:28;;;;;;;7.53;6.13;;;;;;;26.52;100.00;101334.50;5260714;28;20534;-65
2023/06/10 09:52:00;;;;;;;8.20;6.03;;;;;;;26.59;95.43;101329.91;5271943;28;20425;-66
2023/06/10 09:54:32;;;;;;;11.10;6.07;;;;;;;26.76;97.58;101322.94;5258656;28;20056;-65
2023/06/10 09:57:08;;;;;;;8.82;6.18;;;;;;;26.84;92.49;101326.50;5269042;28;20040;-66
2023/06/10 09:59:41;;;;;;;7.05;5.30;;;;;;;26.95;97.99;101323.94;5258035;28;20108;-65
2023/06/10 10:02:16;;;;;;;8.48;5.80;;;;;;;27.05;91.50;101328.97;5272582;28;20033;-66
2023/06/10 10:04:48;;;;;;;7.85;5.57;;;;;;;27.05;92.28;101323.50;5261968;28;20028;-66
2023/06/10 10:07:20;;;;;;;8.77;5.88;;;;;;;27.25;88.68;101322.63;5277610;28;20055;-65
2023/06/10 10:09:51;;;;;;;8.18;5.40;;;;;;;27.45;91.03;101317.91;5270085;28;20438;-65
2023/06/10 10:12:24;;;;;;;7.90;6.07;;;;;;;27.53;88.56;101322.28;5286114;28;20494;-66
2023/06/10 10:14:56;;;;;;;6.68;5.35;;;;;;;27.49;87.71;101308.19;5273230;28;20028;-65
2023/06/10 10:17:29;;;;;;;9.77;6.18;;;;;;;27.45;85.44;101312.41;5278815;28;20032;-66
2023/06/10 10:20:04;;;;;;;10.18;6.10;;;;;;;27.57;84.22;101312.56;5268259;28;20147;-65
2023/06/10 10:22:41;;;;;;;12.38;5.85;;;;;;;27.56;87.51;101310.91;5267483;28;20028;-66
2023/06/10 10:25:27;;;;;;;7.72;5.30;;;;;;;27.64;88.38;101318.84;5272918;28;20431;-65
2023/06/10 10:28:05;;;;;;;8.38;5.47;;;;;;;27.76;89.58;101310.78;5274204;28;20029;-65
2023/06/10 10:30:44;;;;;;;10.60;5.85;;;;;;;27.71;91.85;101305.09;5270360;28;20036;-65
2023/06/10 10:33:19;;;;;;;8.48;5.78;;;;;;;27.76;88.19;101303.38;5265210;28;20082;-66
2023/06/10 10:35:52;;;;;;;12.45;6.00;;;;;;;27.85;85.75;101316.84;5260734;28;20035;-65
2023/06/10 10:38:24;;;;;;;7.80;5.85;;;;;;;27.99;85.29;101309.41;5276516;28;20035;-65
2023/06/10 10:40:59;;;;;;;10.30;5.93;;;;;;;28.01;89.18;101297.13;5278130;28;20038;-66
2023/06/10 10:43:31;;;;;;;9.18;5.82;;;;;;;28.06;88.15;101301.97;5267146;28;20178;-66
2023/06/10 10:46:12;;;;;;;11.07;5.90;;;;;;;28.09;87.47;101304.25;5267625;28;20040;-65
2023/06/10 10:48:44;;;;;;;10.38;5.50;;;;;;;28.10;87.95;101300.44;5261226;28;20052;-66
2023/06/10 10:51:15;;;;;;;8.73;6.05;;;;;;;28.15;84.47;101295.13;5273554;28;20063;-66
2023/06/10 10:54:13;;;;;;;8.57;5.60;;;;;;;28.28;90.31;101299.66;5274625;28;20024;-66
2023/06/10 10:57:11;;;;;;;8.32;5.78;;;;;;;28.33;91.01;101294.34;5274658;28;20090;-65
2023/06/10 10:59:48;;;;;;;7.63;5.60;;;;;;;28.35;87.89;101301.28;5264957;28;20031;-66
2023/06/10 11:02:43;;;;;;;10.57;5.60;;;;;;;28.37;87.94;101289.25;5264388;28;20047;-66
2023/06/10 11:05:15;;;;;;;9.02;5.80;;;;;;;28.33;85.53;101295.19;5273811;28;20102;-66
2023/06/10 11:07:56;;;;;;;9.38;5.72;;;;;;;28.36;83.06;101288.41;5274587;28;20043;-65
2023/06/10 11:10:33;;;;;;;9.02;5.82;;;;;;;28.50;84.45;101294.63;5270293;28;20523;-65
2023/06/10 11:13:15;;;;;;;8.32;6.03;;;;;;;28.69;85.19;101290.03;5264847;28;20017;-65
2023/06/10 11:15:49;;;;;;;6.00;5.40;;;;;;;28.57;83.24;101287.19;5269554;28;20044;-66
2023/06/10 11:18:26;;;;;;;7.85;5.80;;;;;;;28.74;80.10;101282.75;5262832;28;20665;-65
2023/06/10 11:21:05;;;;;;;8.32;5.57;;;;;;;28.64;86.07;101290.69;5267332;28;20159;-65
2023/06/10 11:23:41;;;;;;;8.60;5.95;;;;;;;28.61;84.91;101291.19;5268928;28;20024;-66
2023/06/10 11:26:21;;;;;;;8.07;5.70;;;;;;;28.79;80.02;101276.59;5270964;28;20036;-65
2023/06/10 11:28:53;;;;;;;7.60;6.05;;;;;;;28.85;79.34;101278.44;5268948;28;20409;-65
2023/06/10 11:31:28;;;;;;;8.13;5.90;;;;;;;28.84;81.78;101284.16;5267169;28;20029;-65
2023/06/10 11:34:04;;;;;;;7.45;5.57;;;;;;;28.77;82.72;101283.41;5267246;28;20028;-66